This is the latest recevied weather packets stored in our database for station/object M0OAB-1. If no packets are shown the sender has not sent any weather packets the latest 10 day(s).
| Time | Temp. | Humidity | Pressure | Rain* | Wind** | Luminosity | Snow |
|---|---|---|---|---|---|---|---|
| 1777410366 | 9.44° C | 60% | 1011 hPa | 0 mm | - | - | - |
| 1777409525 | 9.44° C | 60% | 1011 hPa | 0 mm | - | - | - |
| 1777409286 | 9.44° C | 59% | 1010.9 hPa | 0 mm | - | - | - |
| 1777409045 | 9.44° C | 59% | 1011 hPa | 0 mm | - | - | - |
| 1777407965 | 10° C | 56% | 1010.9 hPa | 0 mm | - | - | - |
| 1777407845 | 10° C | 56% | 1010.9 hPa | 0 mm | - | - | - |
| 1777407485 | 10° C | 54% | 1011 hPa | 0 mm | - | - | - |
| 1777407366 | 10° C | 54% | 1011 hPa | 0 mm | - | - | - |
| 1777407125 | 10° C | 53% | 1011 hPa | 0 mm | - | - | - |
| 1777406045 | 10.56° C | 51% | 1010.8 hPa | 0 mm | - | - | - |
| 1777405685 | 10.56° C | 50% | 1010.9 hPa | 0 mm | - | - | - |
| 1777404725 | 11.11° C | 47% | 1010.7 hPa | 0 mm | - | - | - |
| 1777404605 | 11.11° C | 47% | 1010.6 hPa | 0 mm | - | - | - |
| 1777403646 | 11.67° C | 44% | 1010.4 hPa | 0 mm | - | - | - |
| 1777402685 | 12.22° C | 43% | 1010.4 hPa | 0 mm | - | - | - |
| 1777402445 | 12.22° C | 43% | 1010.5 hPa | 0 mm | - | - | - |
| 1777402325 | 12.22° C | 43% | 1010.4 hPa | 0 mm | - | - | - |
| 1777401846 | 12.22° C | 43% | 1010.4 hPa | 0 mm | - | - | - |
| 1777400765 | 12.78° C | 40% | 1010.1 hPa | 0 mm | - | - | - |
| 1777400525 | 12.78° C | 40% | 1010.1 hPa | 0 mm | - | - | - |
| 1777399206 | 13.89° C | 40% | 1009.9 hPa | 0 mm | - | - | - |
| 1777399085 | 13.89° C | 39% | 1010 hPa | 0 mm | - | - | - |
| 1777398725 | 13.89° C | 37% | 1009.9 hPa | 0 mm | - | - | - |
| 1777398366 | 13.89° C | 38% | 1009.9 hPa | 0 mm | - | - | - |
| 1777397045 | 14.44° C | 37% | 1009.7 hPa | 0 mm | - | - | - |
* Rain latest hour (hover to see other rain measurements)
** Current wind speed in m/s (hover to see current wind gust speed)